TimePST,TemperatureF,Dew PointF,Humidity,Sea Level PressureIn,VisibilityMPH,Wind Direction,Wind SpeedMPH,Gust SpeedMPH,PrecipitationIn,Events,Conditions,WindDirDegrees,DateUTC
12:53 AM,39.9,39.0,97,29.67,10.0,Calm,Calm,-,N/A,,Scattered Clouds,0,2012-11-21 08:53:00
1:53 AM,42.1,41.0,96,29.66,9.0,SSE,5.8,-,0.01,Rain,Light Rain,160,2012-11-21 09:53:00
2:33 AM,44.6,42.8,93,29.69,9.0,NW,4.6,-,0.01,Rain,Light Rain,320,2012-11-21 10:33:00
2:53 AM,45.0,42.1,90,29.69,8.0,WNW,3.5,-,0.03,Rain,Light Rain,300,2012-11-21 10:53:00
3:53 AM,44.1,41.0,89,29.70,10.0,Calm,Calm,-,0.00,,Scattered Clouds,0,2012-11-21 11:53:00
4:53 AM,43.0,39.9,89,29.74,10.0,Calm,Calm,-,0.01,,Overcast,0,2012-11-21 12:53:00
5:53 AM,43.0,39.0,86,29.78,10.0,Calm,Calm,-,N/A,,Mostly Cloudy,0,2012-11-21 13:53:00
6:53 AM,39.0,37.0,93,29.80,10.0,NNW,3.5,-,N/A,,Clear,330,2012-11-21 14:53:00
7:53 AM,42.1,37.0,82,29.86,10.0,Calm,Calm,-,N/A,,Partly Cloudy,0,2012-11-21 15:53:00
8:53 AM,50.0,35.1,57,29.89,10.0,Variable,3.5,-,N/A,,Overcast,0,2012-11-21 16:53:00
9:53 AM,52.0,37.0,57,29.92,10.0,Variable,4.6,-,N/A,,Mostly Cloudy,0,2012-11-21 17:53:00
10:53 AM,53.1,35.1,50,29.94,10.0,West,15.0,-,N/A,,Scattered Clouds,280,2012-11-21 18:53:00
11:53 AM,46.9,37.9,71,29.96,10.0,NW,21.9,34.5,N/A,,Overcast,310,2012-11-21 19:53:00
12:53 PM,48.0,37.9,68,29.98,10.0,WNW,10.4,-,0.00,,Overcast,290,2012-11-21 20:53:00
1:53 PM,51.1,37.0,59,30.01,10.0,WNW,13.8,-,0.00,,Overcast,290,2012-11-21 21:53:00
2:53 PM,51.1,34.0,52,30.03,10.0,West,9.2,20.7,N/A,,Clear,270,2012-11-21 22:53:00
3:53 PM,46.0,35.1,66,30.10,10.0,West,11.5,23.0,0.00,Rain,Light Rain,260,2012-11-21 23:53:00
4:09 PM,42.8,35.6,76,30.08,10.0,West,16.1,35.7,0.00,Rain,Light Rain,260,2012-11-22 00:09:00
4:22 PM,42.8,33.8,70,30.09,10.0,WSW,16.1,23.0,0.00,,Scattered Clouds,250,2012-11-22 00:22:00
4:53 PM,42.1,33.1,70,30.10,10.0,Variable,4.6,-,0.00,,Clear,0,2012-11-22 00:53:00
5:53 PM,44.1,33.1,65,30.15,10.0,ENE,5.8,-,N/A,,Scattered Clouds,70,2012-11-22 01:53:00
6:53 PM,43.0,35.1,74,30.19,10.0,North,4.6,-,N/A,,Partly Cloudy,350,2012-11-22 02:53:00
7:53 PM,44.1,36.0,73,30.22,10.0,Calm,Calm,-,N/A,,Overcast,0,2012-11-22 03:53:00
8:53 PM,45.0,34.0,65,30.25,10.0,WNW,8.1,-,N/A,,Overcast,300,2012-11-22 04:53:00
9:53 PM,43.0,37.0,80,30.29,10.0,SE,3.5,-,N/A,,Overcast,130,2012-11-22 05:53:00
10:53 PM,42.1,36.0,79,30.31,10.0,Calm,Calm,-,0.00,,Overcast,0,2012-11-22 06:53:00
11:53 PM,37.9,33.1,83,30.35,10.0,ESE,3.5,-,N/A,,Partly Cloudy,120,2012-11-22 07:53:00